Time;durP1;ratioP1;P1;durP2;ratioP2;P2;SDS_P1;SDS_P2;PMS_P1;PMS_P2;Temp;Humidity;BMP_temperature;BMP_pressure;BME280_temperature;BME280_humidity;BME280_pressure;Samples;Min_cycle;Max_cycle;Signal;HPM_P1;HPM_P2
2022/11/24 00:01:30;;;;;;;11.30;2.00;;;7.60;99.90;;;;;;4992052;28;20655;-78
2022/11/24 00:03:58;;;;;;;5.67;1.10;;;7.60;99.90;;;;;;5008527;28;20186;-78
2022/11/24 00:06:24;;;;;;;8.90;2.20;;;7.60;99.90;;;;;;5008615;28;20457;-79
2022/11/24 00:08:50;;;;;;;7.73;2.10;;;7.60;99.90;;;;;;5008582;28;20469;-78
2022/11/24 00:11:22;;;;;;;15.20;2.43;;;7.60;99.90;;;;;;5009934;28;20451;-79
2022/11/24 00:13:48;;;;;;;7.37;1.80;;;7.60;99.90;;;;;;4992423;28;20421;-78
2022/11/24 00:16:23;;;;;;;8.50;2.37;;;7.60;99.90;;;;;;4992135;28;20958;-79
2022/11/24 00:18:50;;;;;;;5.20;1.43;;;7.60;99.90;;;;;;4991734;28;20986;-79
2022/11/24 00:21:17;;;;;;;9.67;1.70;;;7.90;99.90;;;;;;5008286;28;20448;-79
2022/11/24 00:23:43;;;;;;;9.33;1.83;;;7.70;99.90;;;;;;5008441;28;21037;-79
2022/11/24 00:26:32;;;;;;;7.93;2.00;;;7.70;99.90;;;;;;5009516;28;20511;-79
2022/11/24 00:29:00;;;;;;;5.40;1.83;;;7.80;99.90;;;;;;4994272;28;20460;-79
2022/11/24 00:31:34;;;;;;;11.40;1.80;;;7.80;99.90;;;;;;4978098;28;20977;-78
2022/11/24 00:34:03;;;;;;;3.47;1.40;;;7.70;99.90;;;;;;4979718;28;20502;-79
2022/11/24 00:36:32;;;;;;;12.93;1.93;;;7.70;99.90;;;;;;5011562;28;20420;-80
2022/11/24 00:39:00;;;;;;;9.60;2.37;;;7.70;99.90;;;;;;4995497;28;20417;-79
2022/11/24 00:41:27;;;;;;;6.30;1.80;;;7.70;99.90;;;;;;4994904;28;20539;-79
2022/11/24 00:43:53;;;;;;;10.27;1.87;;;7.80;99.90;;;;;;5011528;28;21009;-79
2022/11/24 00:46:19;;;;;;;7.23;1.30;;;7.70;99.90;;;;;;5011451;28;20451;-79
2022/11/24 00:48:45;;;;;;;7.60;1.23;;;7.70;99.90;;;;;;5011112;28;20719;-79
2022/11/24 00:51:12;;;;;;;7.17;1.43;;;7.70;99.90;;;;;;5010875;28;20479;-79
2022/11/24 00:53:38;;;;;;;7.50;1.63;;;7.60;99.90;;;;;;5011287;28;20899;-78
2022/11/24 00:56:04;;;;;;;14.90;2.13;;;7.70;99.90;;;;;;5012123;28;20424;-77
2022/11/24 00:58:31;;;;;;;6.13;1.50;;;7.70;99.90;;;;;;5010499;28;20430;-79
2022/11/24 01:01:17;;;;;;;7.80;1.50;;;7.70;99.90;;;;;;4994483;28;20958;-77
2022/11/24 01:03:45;;;;;;;6.20;1.23;;;7.70;99.90;;;;;;5010727;28;20512;-77
2022/11/24 01:06:14;;;;;;;10.60;1.40;;;7.70;99.90;;;;;;4978893;28;20438;-76
2022/11/24 01:08:41;;;;;;;3.07;1.03;;;7.60;99.90;;;;;;4994240;28;20582;-77
2022/11/24 01:11:28;;;;;;;9.47;1.30;;;7.70;99.90;;;;;;5010183;28;20480;-77
2022/11/24 01:13:58;;;;;;;8.73;1.63;;;7.60;99.90;;;;;;5010305;28;20435;-77
2022/11/24 01:16:30;;;;;;;5.20;1.30;;;7.70;99.90;;;;;;5010481;28;20856;-76
2022/11/24 01:18:56;;;;;;;3.80;0.97;;;7.70;99.90;;;;;;5010209;28;20440;-77
2022/11/24 01:21:22;;;;;;;4.10;1.00;;;7.60;99.90;;;;;;5010200;28;20977;-77
2022/11/24 01:23:48;;;;;;;6.30;2.13;;;7.60;99.90;;;;;;4993727;28;20429;-78
2022/11/24 01:26:17;;;;;;;7.27;1.40;;;7.60;99.90;;;;;;5011594;28;20432;-77
2022/11/24 01:28:43;;;;;;;3.73;1.33;;;7.50;99.90;;;;;;5011468;28;21110;-78
2022/11/24 01:31:09;;;;;;;4.40;1.00;;;7.40;99.90;;;;;;5009845;28;20463;-77
2022/11/24 01:33:35;;;;;;;5.30;1.13;;;7.40;99.90;;;;;;5009770;28;20940;-76
2022/11/24 01:36:03;;;;;;;8.03;1.23;;;7.50;99.90;;;;;;5009979;28;20420;-78
2022/11/24 01:38:29;;;;;;;5.00;1.20;;;7.40;99.90;;;;;;5009890;28;20482;-78
2022/11/24 01:41:06;;;;;;;5.13;1.53;;;7.50;99.90;;;;;;5010990;28;21271;-77
2022/11/24 01:43:32;;;;;;;7.03;1.20;;;7.40;99.90;;;;;;5011592;28;20287;-79
2022/11/24 01:46:05;;;;;;;4.23;1.23;;;7.60;99.90;;;;;;4993694;28;20503;-77
2022/11/24 01:48:37;;;;;;;7.93;1.30;;;7.30;99.90;;;;;;4994395;28;20459;-78
2022/11/24 01:51:25;;;;;;;4.50;1.03;;;7.30;99.90;;;;;;5011493;28;20439;-76
2022/11/24 01:53:59;;;;;;;4.20;1.10;;;7.30;99.90;;;;;;5011725;28;20412;-77
2022/11/24 01:56:25;;;;;;;4.57;1.23;;;7.30;99.90;;;;;;5009892;28;20524;-77
2022/11/24 01:58:54;;;;;;;3.53;0.77;;;7.30;99.90;;;;;;5010219;28;20516;-77
2022/11/24 02:01:20;;;;;;;4.13;1.00;;;7.30;99.90;;;;;;5011533;28;20470;-77
2022/11/24 02:03:47;;;;;;;4.60;1.03;;;7.30;99.90;;;;;;5009747;28;20428;-77
2022/11/24 02:06:19;;;;;;;5.63;1.30;;;7.20;99.90;;;;;;5009985;28;20186;-79
2022/11/24 02:08:57;;;;;;;2.80;0.70;;;7.30;99.90;;;;;;5009567;28;20456;-78
2022/11/24 02:11:27;;;;;;;4.90;1.10;;;7.40;99.90;;;;;;5009288;28;20444;-77
2022/11/24 02:13:53;;;;;;;3.57;1.00;;;7.50;99.90;;;;;;5010929;28;20420;-76
2022/11/24 02:16:19;;;;;;;4.50;1.30;;;7.50;99.90;;;;;;5009542;28;20432;-76
2022/11/24 02:18:45;;;;;;;3.27;0.80;;;7.70;99.90;;;;;;5010429;28;20444;-77
2022/11/24 02:21:13;;;;;;;3.50;0.83;;;7.60;99.90;;;;;;4992517;28;20217;-77
2022/11/24 02:23:45;;;;;;;7.00;0.97;;;7.60;99.90;;;;;;5008669;28;20441;-77
2022/11/24 02:26:28;;;;;;;1.67;0.90;;;7.70;99.90;;;;;;5010079;28;20425;-76
2022/11/24 02:28:53;;;;;;;3.03;1.20;;;7.70;99.90;;;;;;5009997;28;20451;-77
2022/11/24 02:31:19;;;;;;;7.40;1.30;;;7.70;99.90;;;;;;4991994;28;20508;-78
2022/11/24 02:33:45;;;;;;;7.40;1.60;;;7.70;99.90;;;;;;5008221;28;20185;-77
2022/11/24 02:36:11;;;;;;;6.60;1.20;;;7.70;99.90;;;;;;4975540;28;20185;-78
2022/11/24 02:38:36;;;;;;;8.03;1.53;;;7.60;99.90;;;;;;5009362;28;20424;-78
2022/11/24 02:41:06;;;;;;;5.00;1.13;;;7.80;99.90;;;;;;4991395;28;20249;-78
2022/11/24 02:43:36;;;;;;;8.27;1.33;;;7.60;99.90;;;;;;5007935;28;20189;-78
2022/11/24 02:46:02;;;;;;;2.37;1.20;;;7.60;99.90;;;;;;4975914;28;20811;-78
2022/11/24 02:48:28;;;;;;;8.20;1.50;;;7.60;99.90;;;;;;5007765;28;20456;-79
2022/11/24 02:50:53;;;;;;;4.27;0.97;;;7.70;99.90;;;;;;5007788;28;20757;-78
2022/11/24 02:53:19;;;;;;;4.70;1.30;;;7.50;99.90;;;;;;4990894;28;20644;-78
2022/11/24 02:55:44;;;;;;;6.43;1.53;;;7.40;99.90;;;;;;5009037;28;20195;-79
2022/11/24 02:58:11;;;;;;;4.90;1.10;;;7.40;99.90;;;;;;5008956;28;20191;-78
2022/11/24 03:00:36;;;;;;;4.30;0.87;;;7.30;99.90;;;;;;4975514;28;20308;-78
2022/11/24 03:03:02;;;;;;;11.00;1.80;;;7.50;99.90;;;;;;5007575;28;20528;-77
2022/11/24 03:05:28;;;;;;;4.10;1.30;;;7.40;99.90;;;;;;5008856;28;20193;-78
2022/11/24 03:07:54;;;;;;;5.13;1.33;;;7.50;99.90;;;;;;5009162;28;20472;-78
2022/11/24 03:10:19;;;;;;;3.30;1.30;;;7.40;99.90;;;;;;4992669;28;20283;-78
2022/11/24 03:12:45;;;;;;;5.27;1.30;;;7.40;99.90;;;;;;4977761;28;20189;-78
2022/11/24 03:15:11;;;;;;;6.10;1.13;;;7.40;99.90;;;;;;5010297;28;20436;-78
2022/11/24 03:17:36;;;;;;;9.20;1.57;;;7.40;99.90;;;;;;4953692;28;1103538;-79
2022/11/24 03:20:02;;;;;;;5.23;1.07;;;7.50;99.90;;;;;;5009700;28;20260;-78
2022/11/24 03:22:28;;;;;;;4.50;1.30;;;7.40;99.90;;;;;;5011587;28;20275;-78
2022/11/24 03:24:54;;;;;;;6.03;1.17;;;7.40;99.90;;;;;;5011744;28;20428;-77
2022/11/24 03:27:19;;;;;;;4.13;1.17;;;7.40;99.90;;;;;;5011481;28;20188;-77
2022/11/24 03:29:45;;;;;;;7.37;1.63;;;7.40;99.90;;;;;;4993622;28;20226;-81
2022/11/24 03:32:11;;;;;;;10.20;1.67;;;7.40;99.90;;;;;;5008131;28;20277;-76
2022/11/24 03:34:36;;;;;;;6.23;1.40;;;7.40;99.90;;;;;;5007947;28;20655;-79
2022/11/24 03:37:02;;;;;;;7.70;1.43;;;7.40;99.90;;;;;;4991675;28;20279;-79
2022/11/24 03:39:28;;;;;;;10.07;1.23;;;7.40;99.90;;;;;;4991622;28;20193;-79
2022/11/24 03:41:53;;;;;;;5.70;1.10;;;7.40;99.90;;;;;;5007825;28;20269;-78
2022/11/24 03:44:19;;;;;;;8.03;1.40;;;7.40;99.90;;;;;;5009324;28;20726;-78
2022/11/24 03:46:44;;;;;;;8.80;1.10;;;7.30;99.90;;;;;;4991547;28;20200;-78
2022/11/24 03:49:10;;;;;;;9.63;1.30;;;7.30;99.90;;;;;;4992051;28;20319;-80
2022/11/24 03:51:36;;;;;;;10.20;1.40;;;7.30;99.90;;;;;;5010672;28;20211;-78
2022/11/24 03:54:01;;;;;;;8.10;1.17;;;7.40;99.90;;;;;;4993581;28;20189;-79
2022/11/24 03:56:27;;;;;;;8.17;1.40;;;7.40;99.90;;;;;;5008946;28;20173;-79
2022/11/24 03:58:53;;;;;;;11.10;1.97;;;7.50;99.90;;;;;;5010691;28;20421;-78
2022/11/24 04:01:18;;;;;;;10.83;2.33;;;7.60;99.90;;;;;;5011035;28;20635;-78
2022/11/24 04:03:44;;;;;;;4.00;1.30;;;7.50;99.90;;;;;;5010138;28;20193;-78
2022/11/24 04:06:10;;;;;;;11.50;1.70;;;7.40;99.90;;;;;;4978910;28;20240;-78
2022/11/24 04:08:36;;;;;;;7.93;1.77;;;7.50;99.90;;;;;;5014487;28;20579;-78
2022/11/24 04:11:01;;;;;;;8.33;1.50;;;7.50;99.90;;;;;;5015215;28;20953;-80
2022/11/24 04:13:27;;;;;;;7.87;1.53;;;7.40;99.90;;;;;;4997266;28;20546;-78
2022/11/24 04:15:53;;;;;;;5.57;1.23;;;7.50;99.90;;;;;;5015428;28;20177;-77
2022/11/24 04:18:19;;;;;;;7.57;1.60;;;7.60;99.90;;;;;;4997091;28;20233;-77
2022/11/24 04:20:48;;;;;;;9.90;1.57;;;7.50;99.90;;;;;;5012464;28;20201;-79
2022/11/24 04:23:14;;;;;;;13.03;1.40;;;7.30;99.90;;;;;;5013704;28;20417;-81
2022/11/24 04:25:40;;;;;;;12.67;2.03;;;7.40;99.90;;;;;;5012296;28;20478;-80
2022/11/24 04:28:06;;;;;;;11.67;1.97;;;7.20;99.90;;;;;;4996086;28;20240;-79
2022/11/24 04:30:32;;;;;;;7.40;1.23;;;7.20;99.90;;;;;;5012520;28;20871;-78
2022/11/24 04:32:57;;;;;;;5.80;1.10;;;7.10;99.90;;;;;;5013125;28;20217;-78
2022/11/24 04:35:23;;;;;;;5.67;1.50;;;7.20;99.90;;;;;;5011986;28;20435;-79
2022/11/24 04:37:49;;;;;;;9.00;3.13;;;7.10;99.90;;;;;;5012572;28;20610;-79
2022/11/24 04:40:15;;;;;;;8.13;1.70;;;7.10;99.90;;;;;;4995940;28;20555;-79
2022/11/24 04:42:41;;;;;;;13.47;3.80;;;7.00;99.90;;;;;;4995705;28;20198;-77
2022/11/24 04:45:07;;;;;;;10.70;1.83;;;7.00;99.90;;;;;;5012041;28;20527;-78
2022/11/24 04:47:33;;;;;;;7.43;1.87;;;7.00;99.90;;;;;;5012968;28;20189;-80
2022/11/24 04:49:59;;;;;;;7.80;1.40;;;7.00;99.90;;;;;;5011013;28;20497;-78
2022/11/24 04:52:25;;;;;;;6.57;1.30;;;6.90;99.90;;;;;;4994755;28;20424;-79
2022/11/24 04:54:51;;;;;;;8.80;2.07;;;7.00;99.90;;;;;;4994644;28;20185;-79
2022/11/24 04:57:19;;;;;;;11.13;1.90;;;7.10;99.90;;;;;;5012334;28;20414;-80
2022/11/24 04:59:45;;;;;;;8.80;1.83;;;6.90;99.90;;;;;;5011898;28;20506;-79
2022/11/24 05:02:11;;;;;;;5.70;1.60;;;6.80;99.90;;;;;;4994390;28;20424;-82
2022/11/24 05:04:37;;;;;;;5.30;1.30;;;6.80;99.90;;;;;;5010342;28;20420;-82
2022/11/24 05:07:03;;;;;;;8.43;1.33;;;6.80;99.90;;;;;;4977130;28;20454;-83
2022/11/24 05:09:29;;;;;;;7.17;1.50;;;6.80;99.90;;;;;;5010808;28;20204;-83
2022/11/24 05:11:54;;;;;;;8.90;1.80;;;6.80;99.90;;;;;;4993007;28;20475;-82
2022/11/24 05:14:20;;;;;;;6.70;1.90;;;6.80;99.90;;;;;;4993137;28;20193;-82
2022/11/24 05:16:46;;;;;;;15.27;2.13;;;7.00;99.90;;;;;;5009025;28;20198;-81
2022/11/24 05:19:12;;;;;;;6.00;1.43;;;7.00;99.90;;;;;;4993056;28;20197;-82
2022/11/24 05:21:38;;;;;;;6.27;1.43;;;7.10;99.90;;;;;;5009144;28;20245;-82
2022/11/24 05:24:03;;;;;;;9.10;2.53;;;7.00;99.90;;;;;;5009322;28;20989;-81
2022/11/24 05:26:29;;;;;;;13.63;1.50;;;7.10;99.90;;;;;;5009055;28;20464;-82
2022/11/24 05:28:55;;;;;;;9.30;1.63;;;7.20;99.90;;;;;;4992882;28;20467;-82
2022/11/24 05:31:20;;;;;;;9.73;1.50;;;7.40;99.90;;;;;;5009509;28;20199;-82
2022/11/24 05:33:46;;;;;;;7.90;1.43;;;7.20;99.90;;;;;;4993120;28;20593;-82
2022/11/24 05:36:51;;;;;;;9.03;1.43;;;7.20;99.90;;;;;;4993448;28;20239;-82
2022/11/24 05:38:57;;;;;;;7.33;1.63;;;7.10;99.90;;;;;;5009721;28;20259;-82
2022/11/24 05:41:23;;;;;;;7.97;1.40;;;6.90;99.90;;;;;;5011334;28;20441;-82
2022/11/24 05:43:48;;;;;;;11.33;1.90;;;6.80;99.90;;;;;;4993365;28;20657;-82
2022/11/24 05:46:14;;;;;;;7.70;1.90;;;6.70;99.90;;;;;;5009496;28;20250;-82
2022/11/24 05:48:39;;;;;;;2.00;1.07;;;6.30;99.90;;;;;;5009414;28;20216;-82
2022/11/24 05:51:05;;;;;;;7.90;1.37;;;6.50;99.90;;;;;;4976949;28;20209;-82
2022/11/24 05:53:31;;;;;;;12.50;1.57;;;6.60;99.90;;;;;;4992908;28;20627;-83
2022/11/24 05:55:56;;;;;;;17.23;1.90;;;6.40;99.90;;;;;;5009469;28;20189;-82
2022/11/24 05:58:22;;;;;;;7.90;1.67;;;6.30;99.90;;;;;;4992957;28;20193;-83
2022/11/24 06:00:48;;;;;;;9.00;1.73;;;6.30;99.90;;;;;;5008944;28;20211;-83
2022/11/24 06:03:13;;;;;;;8.63;1.60;;;6.30;99.90;;;;;;4977292;28;20209;-82
2022/11/24 06:05:39;;;;;;;7.80;1.30;;;6.40;99.90;;;;;;4993644;28;20204;-84
2022/11/24 06:08:04;;;;;;;4.63;1.00;;;6.30;99.90;;;;;;4993457;28;20321;-83
2022/11/24 06:10:30;;;;;;;8.73;2.03;;;6.40;99.90;;;;;;4993574;28;20960;-82
2022/11/24 06:12:56;;;;;;;2.50;1.00;;;6.30;99.90;;;;;;4977595;28;20189;-82
2022/11/24 06:15:21;;;;;;;8.93;1.97;;;6.30;99.90;;;;;;5010063;28;20188;-82
2022/11/24 06:17:55;;;;;;;4.87;1.40;;;6.20;99.90;;;;;;4993042;28;20209;-83
2022/11/24 06:20:21;;;;;;;7.67;1.60;;;6.20;99.90;;;;;;4993151;28;20213;-82
2022/11/24 06:22:47;;;;;;;5.63;1.40;;;6.20;99.90;;;;;;4992988;28;20432;-82
2022/11/24 06:25:13;;;;;;;4.53;1.30;;;6.20;99.90;;;;;;4976827;28;21003;-82
2022/11/24 06:27:39;;;;;;;3.77;1.10;;;6.10;99.90;;;;;;4994396;28;20738;-83
2022/11/24 06:30:05;;;;;;;38.77;17.87;;;5.80;99.90;;;;;;4992143;28;20458;-82
2022/11/24 06:32:31;;;;;;;6.10;2.00;;;5.80;99.90;;;;;;4976658;28;20436;-83
2022/11/24 06:34:56;;;;;;;5.80;1.43;;;5.80;99.90;;;;;;4977749;28;20475;-83
2022/11/24 06:37:22;;;;;;;8.97;1.73;;;5.90;99.90;;;;;;4992655;28;20208;-82
2022/11/24 06:39:48;;;;;;;6.80;2.17;;;5.90;99.90;;;;;;4992833;28;20464;-83
2022/11/24 06:42:17;;;;;;;11.37;1.80;;;6.00;99.90;;;;;;4993076;28;20572;-84
2022/11/24 06:44:44;;;;;;;4.30;1.90;;;6.10;99.90;;;;;;4993469;28;20189;-82
2022/11/24 06:47:10;;;;;;;12.47;1.80;;;6.20;99.90;;;;;;4992276;28;20456;-82
2022/11/24 06:49:36;;;;;;;10.60;2.27;;;6.20;99.90;;;;;;4975711;28;20890;-83
2022/11/24 06:52:01;;;;;;;10.60;1.80;;;6.40;99.90;;;;;;4976711;28;20211;-82
2022/11/24 06:54:27;;;;;;;11.33;1.63;;;6.40;99.90;;;;;;4992539;28;20196;-83
2022/11/24 06:56:57;;;;;;;9.87;1.60;;;6.50;99.90;;;;;;4976732;28;20259;-83
2022/11/24 06:59:23;;;;;;;6.43;1.63;;;6.30;99.90;;;;;;5008655;28;20287;-83
2022/11/24 07:01:49;;;;;;;5.50;1.50;;;6.60;99.90;;;;;;5008718;28;20483;-82
2022/11/24 07:04:15;;;;;;;8.57;2.10;;;6.50;99.90;;;;;;5008697;28;20420;-83
2022/11/24 07:06:41;;;;;;;11.27;1.70;;;6.60;99.90;;;;;;5008810;28;20902;-82
2022/11/24 07:09:12;;;;;;;8.43;1.40;;;6.60;99.90;;;;;;5008682;28;20464;-83
2022/11/24 07:11:38;;;;;;;5.97;1.70;;;6.60;99.90;;;;;;5009737;28;20455;-82
2022/11/24 07:14:04;;;;;;;10.67;1.83;;;6.70;99.90;;;;;;4991788;28;20432;-82
2022/11/24 07:16:30;;;;;;;11.67;2.33;;;6.70;99.90;;;;;;5008186;28;20986;-83
2022/11/24 07:18:57;;;;;;;6.80;1.73;;;6.70;99.90;;;;;;5008265;28;20487;-82
2022/11/24 07:21:23;;;;;;;10.43;1.50;;;6.70;99.90;;;;;;5008324;28;20486;-84
2022/11/24 07:23:50;;;;;;;9.30;1.77;;;6.60;99.90;;;;;;5008409;28;20898;-83
2022/11/24 07:26:17;;;;;;;6.40;1.83;;;6.60;99.90;;;;;;5010151;28;20416;-82
2022/11/24 07:28:42;;;;;;;5.00;1.87;;;6.60;99.90;;;;;;5008401;28;20528;-82
2022/11/24 07:31:11;;;;;;;6.17;1.63;;;6.60;99.90;;;;;;4991770;28;20456;-82
2022/11/24 07:33:37;;;;;;;8.80;1.93;;;6.80;99.90;;;;;;5008338;28;20558;-82
2022/11/24 07:36:04;;;;;;;8.37;2.07;;;6.70;99.90;;;;;;5008282;28;20430;-83
2022/11/24 07:38:30;;;;;;;7.00;2.00;;;6.80;99.90;;;;;;4991648;28;20514;-82
2022/11/24 07:41:04;;;;;;;8.13;1.63;;;6.80;99.90;;;;;;4991263;28;20479;-83
2022/11/24 07:43:32;;;;;;;10.57;2.83;;;6.90;99.90;;;;;;5007015;28;20799;-83
2022/11/24 07:45:58;;;;;;;9.43;2.27;;;7.00;99.90;;;;;;4975919;28;20469;-83
2022/11/24 07:48:23;;;;;;;9.77;2.03;;;7.10;99.90;;;;;;4991638;28;20503;-82
2022/11/24 07:50:49;;;;;;;11.43;3.10;;;7.00;99.90;;;;;;4991318;28;20984;-82
2022/11/24 07:53:17;;;;;;;18.90;3.50;;;6.90;99.90;;;;;;4991775;28;20231;-82
2022/11/24 07:55:43;;;;;;;11.20;2.53;;;6.90;99.90;;;;;;4991458;28;20808;-83
2022/11/24 07:58:08;;;;;;;12.27;2.80;;;6.90;99.90;;;;;;5007599;28;20432;-82
2022/11/24 08:00:34;;;;;;;6.43;1.70;;;6.90;99.90;;;;;;4991376;28;20217;-83
2022/11/24 08:03:00;;;;;;;11.70;2.77;;;6.90;99.90;;;;;;4991317;28;20195;-83
2022/11/24 08:05:25;;;;;;;12.33;1.97;;;6.90;99.90;;;;;;4991591;28;20299;-82
2022/11/24 08:07:51;;;;;;;10.63;2.13;;;7.00;99.90;;;;;;4991465;28;20615;-82
2022/11/24 08:10:17;;;;;;;6.60;2.00;;;6.80;99.90;;;;;;4991415;28;20244;-82
2022/11/24 08:12:43;;;;;;;7.17;1.80;;;6.80;99.90;;;;;;5007894;28;20181;-83
2022/11/24 08:15:09;;;;;;;5.07;2.07;;;6.90;99.90;;;;;;4991138;28;20524;-83
2022/11/24 08:17:34;;;;;;;14.83;2.77;;;6.90;99.90;;;;;;4991365;28;20737;-83
2022/11/24 08:20:00;;;;;;;8.63;1.73;;;6.90;99.90;;;;;;4992124;28;20531;-83
2022/11/24 08:22:26;;;;;;;15.53;1.90;;;7.00;99.90;;;;;;4992103;28;20220;-83
2022/11/24 08:24:51;;;;;;;12.27;2.20;;;7.10;99.90;;;;;;4992165;28;20220;-83
2022/11/24 08:27:18;;;;;;;13.90;2.33;;;7.10;99.90;;;;;;4991160;28;20212;-82
2022/11/24 08:29:44;;;;;;;10.67;3.10;;;7.10;99.90;;;;;;5006986;28;20209;-82
2022/11/24 08:32:10;;;;;;;13.27;1.90;;;7.20;99.90;;;;;;5007263;28;20523;-82
2022/11/24 08:34:36;;;;;;;14.13;2.37;;;7.20;99.90;;;;;;5008475;28;20423;-82
2022/11/24 08:37:03;;;;;;;9.73;2.57;;;7.20;99.90;;;;;;4991053;28;20435;-82
2022/11/24 08:39:29;;;;;;;12.80;2.43;;;7.20;99.90;;;;;;5007818;28;20424;-83
2022/11/24 08:41:55;;;;;;;8.40;2.10;;;7.20;99.90;;;;;;4991967;28;20466;-82
2022/11/24 08:44:21;;;;;;;10.63;2.77;;;7.10;99.90;;;;;;5008802;28;20906;-83
2022/11/24 08:46:47;;;;;;;3.70;1.60;;;7.10;99.90;;;;;;4994357;28;20239;-83
2022/11/24 08:49:15;;;;;;;5.00;1.57;;;7.20;99.90;;;;;;4980014;28;20221;-82
2022/11/24 08:51:42;;;;;;;29.43;9.23;;;7.10;99.90;;;;;;5012080;28;20832;-82
2022/11/24 08:54:09;;;;;;;10.63;2.07;;;7.20;99.90;;;;;;4998743;28;20437;-82
2022/11/24 08:56:35;;;;;;;10.83;4.03;;;7.40;99.90;;;;;;4999326;28;20605;-83
2022/11/24 08:59:01;;;;;;;6.47;1.40;;;7.20;99.90;;;;;;5015095;28;21261;-82
2022/11/24 09:01:27;;;;;;;11.27;2.20;;;7.20;99.90;;;;;;5014516;28;20488;-82
2022/11/24 09:03:53;;;;;;;3.90;1.63;;;7.20;99.90;;;;;;5014720;28;20428;-82
2022/11/24 09:06:22;;;;;;;2.73;1.03;;;7.30;99.90;;;;;;5014927;28;20614;-81
2022/11/24 09:08:48;;;;;;;5.60;1.77;;;7.30;99.90;;;;;;5014904;28;20218;-82
2022/11/24 09:11:15;;;;;;;10.07;2.00;;;7.20;99.90;;;;;;5013000;28;20442;-82
2022/11/24 09:13:41;;;;;;;3.87;1.20;;;7.40;99.90;;;;;;5011625;28;20969;-82
2022/11/24 09:16:12;;;;;;;7.97;1.47;;;7.40;99.90;;;;;;5011765;28;20420;-82
2022/11/24 09:18:38;;;;;;;11.97;2.07;;;7.60;99.90;;;;;;5010723;28;20444;-82
2022/11/24 09:21:16;;;;;;;4.73;1.33;;;7.50;99.90;;;;;;4994435;28;20494;-82
2022/11/24 09:23:42;;;;;;;6.37;1.43;;;7.40;99.90;;;;;;5011084;28;20428;-82
2022/11/24 09:26:12;;;;;;;10.87;1.67;;;7.50;99.90;;;;;;5010960;28;20791;-82
2022/11/24 09:28:38;;;;;;;2.87;1.07;;;7.50;99.90;;;;;;4994609;28;20475;-82
2022/11/24 09:31:09;;;;;;;5.13;1.17;;;7.40;99.90;;;;;;5010736;28;20823;-81
2022/11/24 09:33:35;;;;;;;7.23;1.60;;;7.50;99.90;;;;;;5011057;28;20447;-83
2022/11/24 09:36:01;;;;;;;4.87;1.13;;;7.60;99.90;;;;;;5012771;28;20443;-82
2022/11/24 09:38:27;;;;;;;9.20;1.47;;;7.70;99.90;;;;;;4994760;28;20824;-83
2022/11/24 09:40:53;;;;;;;8.67;1.60;;;7.90;99.90;;;;;;4994166;28;20506;-83
2022/11/24 09:43:46;;;;;;;4.53;1.20;;;7.90;99.90;;;;;;4994445;28;20466;-84
2022/11/24 09:46:52;;;;;;;5.00;1.10;;;7.90;99.90;;;;;;5010806;28;20424;-83
2022/11/24 09:49:28;;;;;;;4.40;1.00;;;7.90;99.90;;;;;;4970128;28;20529;-83
2022/11/24 09:51:55;;;;;;;8.10;1.70;;;8.00;99.90;;;;;;5007328;28;20979;-84
2022/11/24 09:54:27;;;;;;;8.73;1.23;;;8.00;99.90;;;;;;5010424;28;20412;-83
2022/11/24 09:56:56;;;;;;;1.60;0.87;;;8.00;99.90;;;;;;5010736;28;20435;-84
2022/11/24 09:59:23;;;;;;;2.53;1.10;;;7.80;99.90;;;;;;4994533;28;20933;-84
2022/11/24 10:01:51;;;;;;;3.63;0.67;;;7.80;99.90;;;;;;5010314;28;20450;-83
2022/11/24 10:04:21;;;;;;;2.87;0.60;;;7.70;99.90;;;;;;4977042;28;20566;-83
2022/11/24 10:06:57;;;;;;;1.90;0.83;;;7.90;99.90;;;;;;5010703;28;20421;-84
2022/11/24 10:09:31;;;;;;;1.67;0.80;;;8.00;99.90;;;;;;5009732;28;20982;-84
2022/11/24 10:12:21;;;;;;;2.63;0.60;;;8.20;99.90;;;;;;5011339;28;20519;-84
2022/11/24 10:15:18;;;;;;;2.93;0.60;;;8.50;99.90;;;;;;5011117;28;21017;-84
2022/11/24 10:18:08;;;;;;;2.20;0.80;;;8.70;99.90;;;;;;5011399;28;20443;-84
2022/11/24 10:21:11;;;;;;;1.20;0.57;;;8.90;99.90;;;;;;5011040;28;20484;-84
2022/11/24 10:24:01;;;;;;;1.23;0.70;;;8.90;99.90;;;;;;5010828;28;20412;-85
2022/11/24 10:26:38;;;;;;;2.57;0.73;;;8.80;99.90;;;;;;5011465;28;20424;-83
2022/11/24 10:29:23;;;;;;;1.17;0.60;;;8.60;99.90;;;;;;5010115;28;20502;-83
2022/11/24 10:31:53;;;;;;;6.30;0.73;;;8.50;99.90;;;;;;5009804;28;20446;-85
2022/11/24 10:34:33;;;;;;;4.37;0.67;;;8.50;99.90;;;;;;5009867;28;20417;-83
2022/11/24 10:37:20;;;;;;;3.53;1.07;;;8.50;99.90;;;;;;5010270;28;20504;-84
2022/11/24 10:40:12;;;;;;;3.37;0.97;;;8.50;99.90;;;;;;5010558;28;20421;-83
2022/11/24 10:42:39;;;;;;;5.17;1.50;;;8.50;99.90;;;;;;5009368;28;20428;-84
2022/11/24 10:45:16;;;;;;;3.80;0.70;;;8.40;99.90;;;;;;4977766;28;20455;-83
2022/11/24 10:47:43;;;;;;;1.17;0.50;;;8.40;99.90;;;;;;4992864;28;20486;-83
2022/11/24 10:50:18;;;;;;;2.70;0.50;;;8.40;99.90;;;;;;5010518;28;20929;-83
2022/11/24 10:52:50;;;;;;;2.20;0.70;;;8.40;99.90;;;;;;5009507;28;20441;-83
2022/11/24 10:55:15;;;;;;;0.80;0.50;;;8.50;99.90;;;;;;5009253;28;20928;-83
2022/11/24 10:57:42;;;;;;;2.40;1.47;;;8.50;99.90;;;;;;5009240;28;20428;-82
2022/11/24 11:00:17;;;;;;;0.93;0.50;;;8.50;99.90;;;;;;4993408;28;20445;-84
2022/11/24 11:02:43;;;;;;;1.57;0.80;;;8.50;99.90;;;;;;5009066;28;20505;-82
2022/11/24 11:05:51;;;;;;;3.10;1.30;;;8.40;99.90;;;;;;4997208;28;20424;-83
2022/11/24 11:08:25;;;;;;;5.30;0.90;;;8.30;99.90;;;;;;4937875;28;20476;-83
2022/11/24 11:11:06;;;;;;;4.50;0.83;;;8.20;99.90;;;;;;5002640;28;20433;-84
2022/11/24 11:13:32;;;;;;;2.60;0.80;;;8.10;99.90;;;;;;5008468;28;20424;-84
2022/11/24 11:15:58;;;;;;;6.60;0.70;;;8.10;99.90;;;;;;5008129;28;20976;-83
2022/11/24 11:18:32;;;;;;;2.93;0.60;;;8.00;99.90;;;;;;4975862;28;20201;-83
2022/11/24 11:21:01;;;;;;;1.20;0.60;;;8.00;99.90;;;;;;5008710;28;21052;-84
2022/11/24 11:23:33;;;;;;;3.10;1.23;;;7.80;99.90;;;;;;4992356;28;20435;-84
2022/11/24 11:26:17;;;;;;;4.93;0.87;;;7.90;99.90;;;;;;5008184;28;20516;-82
2022/11/24 11:28:56;;;;;;;3.20;0.70;;;8.00;99.90;;;;;;5008221;28;20460;-83
2022/11/24 11:31:22;;;;;;;1.43;0.70;;;8.60;99.90;;;;;;5007989;28;20617;-83
2022/11/24 11:34:00;;;;;;;1.93;0.73;;;9.20;99.90;;;;;;5008271;28;20431;-84
2022/11/24 11:36:27;;;;;;;5.70;1.00;;;9.50;99.90;;;;;;5008112;28;20992;-84
2022/11/24 11:38:52;;;;;;;2.83;0.60;;;9.80;99.90;;;;;;5008170;28;20427;-84
2022/11/24 11:41:42;;;;;;;4.03;0.90;;;10.20;99.90;;;;;;5007658;28;20824;-83
2022/11/24 11:44:26;;;;;;;2.67;0.70;;;10.60;99.90;;;;;;5007872;28;20185;-83
2022/11/24 11:46:54;;;;;;;3.00;1.07;;;10.80;99.90;;;;;;5007141;28;20454;-83
2022/11/24 11:49:20;;;;;;;2.40;0.90;;;10.60;99.90;;;;;;5007127;28;20513;-83
2022/11/24 11:51:57;;;;;;;2.30;1.00;;;10.50;99.90;;;;;;4991489;28;20453;-84
2022/11/24 11:54:49;;;;;;;1.90;0.87;;;10.50;99.90;;;;;;5008030;28;20181;-84
2022/11/24 11:57:43;;;;;;;4.40;1.10;;;10.50;99.90;;;;;;5009785;28;20922;-85
2022/11/24 12:00:16;;;;;;;4.30;1.90;;;10.50;99.90;;;;;;5007639;28;20441;-84
2022/11/24 12:02:57;;;;;;;4.80;1.17;;;10.60;99.90;;;;;;4976075;28;20433;-83
2022/11/24 12:05:29;;;;;;;2.93;0.90;;;10.60;99.90;;;;;;5009667;28;20436;-84
2022/11/24 12:08:09;;;;;;;4.10;1.20;;;10.70;99.90;;;;;;5007727;28;20442;-84
2022/11/24 12:10:38;;;;;;;5.57;1.50;;;11.00;99.90;;;;;;5009222;28;20960;-84
2022/11/24 12:13:29;;;;;;;4.90;1.40;;;11.00;99.90;;;;;;5009381;28;20499;-84
2022/11/24 12:16:38;;;;;;;8.67;1.80;;;10.90;99.90;;;;;;4990123;28;20544;-83
2022/11/24 12:19:32;;;;;;;3.90;1.17;;;11.00;99.90;;;;;;4980391;28;20495;-84
2022/11/24 12:22:00;;;;;;;4.73;1.30;;;10.80;99.90;;;;;;5007893;28;20927;-82
2022/11/24 12:24:32;;;;;;;10.03;1.30;;;10.50;99.90;;;;;;5007689;28;20431;-83
2022/11/24 12:27:05;;;;;;;3.70;1.27;;;10.30;99.90;;;;;;5010698;28;20510;-83
2022/11/24 12:29:33;;;;;;;3.33;0.90;;;10.10;99.90;;;;;;4995187;28;20530;-84
2022/11/24 12:32:25;;;;;;;6.00;1.20;;;10.00;99.90;;;;;;5011524;28;20984;-84
2022/11/24 12:35:13;;;;;;;5.70;1.33;;;9.80;99.90;;;;;;5013208;28;20400;-85
2022/11/24 12:37:57;;;;;;;4.77;1.30;;;9.80;99.90;;;;;;5012548;28;20430;-83
2022/11/24 12:40:43;;;;;;;5.97;0.90;;;9.70;99.90;;;;;;5012624;28;20427;-83
2022/11/24 12:43:34;;;;;;;7.73;1.30;;;9.50;99.90;;;;;;5011029;28;20424;-83
2022/11/24 12:46:41;;;;;;;7.37;1.53;;;9.40;99.90;;;;;;5011246;28;20415;-83
2022/11/24 12:49:32;;;;;;;6.10;1.47;;;9.40;99.90;;;;;;5011141;28;20819;-84
2022/11/24 12:52:13;;;;;;;2.37;1.00;;;9.40;99.90;;;;;;5011296;28;20435;-82
2022/11/24 12:54:39;;;;;;;6.07;1.30;;;9.40;99.90;;;;;;5011130;28;20415;-83
2022/11/24 12:57:08;;;;;;;4.83;1.43;;;9.40;99.90;;;;;;5011169;28;20909;-84
2022/11/24 12:59:47;;;;;;;4.83;1.50;;;9.40;99.90;;;;;;5012236;28;20417;-84
2022/11/24 13:02:29;;;;;;;5.57;1.53;;;9.50;99.90;;;;;;5011070;28;20997;-84
2022/11/24 13:05:23;;;;;;;5.03;1.07;;;9.40;99.90;;;;;;5010855;28;20420;-83
2022/11/24 13:07:59;;;;;;;5.33;1.13;;;9.50;99.90;;;;;;5010711;28;20960;-85
2022/11/24 13:10:24;;;;;;;2.00;1.10;;;9.50;99.90;;;;;;4994865;28;20448;-83